createdAt,value
2018-06-21T00:00:49.577Z,15.30
2018-06-21T00:03:17.969Z,15.30
2018-06-21T00:05:46.339Z,15.30
2018-06-21T00:08:14.750Z,15.20
2018-06-21T00:10:43.125Z,15.20
2018-06-21T00:13:11.516Z,15.20
2018-06-21T00:15:39.893Z,15.10
2018-06-21T00:18:08.273Z,15.00
2018-06-21T00:20:36.693Z,15.00
2018-06-21T00:23:05.148Z,14.90
2018-06-21T00:25:33.544Z,14.80
2018-06-21T00:28:01.930Z,14.80
2018-06-21T00:30:30.298Z,14.80
2018-06-21T00:32:58.693Z,14.80
2018-06-21T00:35:27.101Z,14.80
2018-06-21T00:37:55.658Z,14.70
2018-06-21T00:40:24.021Z,14.70
2018-06-21T00:42:52.494Z,14.60
2018-06-21T00:45:20.898Z,14.50
2018-06-21T00:47:49.275Z,14.40
2018-06-21T00:50:17.662Z,14.30
2018-06-21T00:52:46.051Z,14.30
2018-06-21T00:55:16.405Z,14.30
2018-06-21T00:57:44.806Z,14.20
2018-06-21T01:00:13.171Z,14.20
2018-06-21T01:02:41.609Z,14.20
2018-06-21T01:05:09.966Z,14.10
2018-06-21T01:07:38.368Z,14.00
2018-06-21T01:10:06.748Z,14.00
2018-06-21T01:12:35.228Z,14.00
2018-06-21T01:15:03.624Z,14.00
2018-06-21T01:17:31.981Z,14.00
2018-06-21T01:20:00.316Z,14.00
2018-06-21T01:22:28.673Z,14.00
2018-06-21T01:24:57.054Z,13.90
2018-06-21T01:27:25.503Z,13.90
2018-06-21T01:29:53.843Z,13.90
2018-06-21T01:32:22.238Z,13.90
2018-06-21T01:34:50.585Z,13.90
2018-06-21T01:37:18.944Z,13.90
2018-06-21T01:39:47.267Z,13.90
2018-06-21T01:42:15.592Z,13.90
2018-06-21T01:44:43.992Z,13.80
2018-06-21T01:47:12.319Z,13.80
2018-06-21T01:49:40.670Z,13.80
2018-06-21T01:52:09.021Z,13.80
2018-06-21T01:54:37.418Z,13.70
2018-06-21T01:57:05.824Z,13.60
2018-06-21T01:59:34.269Z,13.50
2018-06-21T02:02:02.663Z,13.40
2018-06-21T02:04:31.016Z,13.30
2018-06-21T02:06:59.344Z,13.20
2018-06-21T02:09:27.705Z,13.20
2018-06-21T02:11:56.032Z,13.20
2018-06-21T02:14:24.402Z,13.20
2018-06-21T02:16:52.763Z,13.30
2018-06-21T02:19:21.135Z,13.40
2018-06-21T02:21:49.570Z,13.40
2018-06-21T02:24:17.943Z,13.40
2018-06-21T02:26:46.277Z,13.40
2018-06-21T02:29:14.642Z,13.40
2018-06-21T02:31:43.064Z,13.40
2018-06-21T02:34:11.441Z,13.40
2018-06-21T02:36:39.821Z,13.40
2018-06-21T02:39:09.084Z,13.40
2018-06-21T02:41:37.481Z,13.30
2018-06-21T02:44:05.888Z,13.30
2018-06-21T02:46:34.281Z,13.30
2018-06-21T02:49:02.616Z,13.20
2018-06-21T02:51:30.963Z,13.20
2018-06-21T02:53:59.318Z,13.20
2018-06-21T02:56:27.696Z,13.20
2018-06-21T02:58:56.209Z,13.20
2018-06-21T03:01:24.546Z,13.20
2018-06-21T03:03:52.950Z,13.20
2018-06-21T03:06:21.285Z,13.20
2018-06-21T03:08:49.642Z,13.20
2018-06-21T03:11:17.994Z,13.20
2018-06-21T03:13:46.362Z,13.30
2018-06-21T03:16:14.714Z,13.30
2018-06-21T03:18:43.066Z,13.30
2018-06-21T03:21:11.419Z,13.40
2018-06-21T03:23:39.763Z,13.30
2018-06-21T03:26:08.095Z,13.30
2018-06-21T03:28:36.448Z,13.20
2018-06-21T03:31:04.818Z,13.30
2018-06-21T03:33:33.177Z,13.30
2018-06-21T03:36:01.538Z,13.30
2018-06-21T03:38:29.875Z,13.30
2018-06-21T03:40:58.267Z,13.30
2018-06-21T03:43:26.623Z,13.40
2018-06-21T03:45:54.984Z,13.40
2018-06-21T03:48:23.330Z,13.60
2018-06-21T03:50:51.731Z,13.70
2018-06-21T03:53:20.082Z,13.70
2018-06-21T03:55:48.582Z,13.80
2018-06-21T03:58:16.930Z,13.90
2018-06-21T04:00:45.294Z,13.90
2018-06-21T04:03:13.931Z,14.00
2018-06-21T04:05:42.316Z,14.10
2018-06-21T04:08:10.750Z,14.20
2018-06-21T04:10:39.116Z,14.20
2018-06-21T04:13:07.462Z,14.40
2018-06-21T04:15:35.811Z,14.50
2018-06-21T04:18:04.479Z,14.60
2018-06-21T04:20:32.828Z,14.60
2018-06-21T04:23:01.174Z,14.70
2018-06-21T04:25:29.647Z,14.80
2018-06-21T04:27:58.018Z,15.00
2018-06-21T04:30:26.370Z,15.20
2018-06-21T04:32:54.722Z,15.30
2018-06-21T04:35:23.081Z,15.40
2018-06-21T04:37:51.436Z,15.60
2018-06-21T04:40:19.788Z,15.60
2018-06-21T04:42:48.133Z,15.70
2018-06-21T04:45:16.512Z,15.80
2018-06-21T04:47:44.866Z,16.00
2018-06-21T04:50:13.229Z,16.10
2018-06-21T04:52:41.634Z,16.30
2018-06-21T04:55:09.992Z,16.50
2018-06-21T04:57:38.324Z,16.80
2018-06-21T05:00:06.754Z,17.00
2018-06-21T05:02:35.094Z,17.40
2018-06-21T05:05:03.507Z,17.70
2018-06-21T05:07:31.881Z,18.00
2018-06-21T05:10:00.271Z,18.30
2018-06-21T05:12:28.827Z,18.70
2018-06-21T05:14:57.248Z,19.00
2018-06-21T05:17:25.647Z,19.20
2018-06-21T05:19:54.004Z,19.40
2018-06-21T05:22:22.387Z,19.80
2018-06-21T05:24:50.736Z,20.10
2018-06-21T05:27:19.116Z,20.20
2018-06-21T05:29:47.460Z,20.70
2018-06-21T05:32:15.777Z,21.00
2018-06-21T05:34:44.123Z,21.60
2018-06-21T05:37:12.474Z,21.90
2018-06-21T05:39:40.801Z,22.40
2018-06-21T05:42:09.118Z,22.80
2018-06-21T05:44:40.911Z,23.10
2018-06-21T05:47:09.241Z,23.30
2018-06-21T05:49:37.562Z,23.70
2018-06-21T05:52:05.883Z,24.10
2018-06-21T05:54:34.216Z,24.60
2018-06-21T05:57:02.548Z,25.60
2018-06-21T05:59:30.858Z,25.90
2018-06-21T06:01:59.239Z,26.10
2018-06-21T06:04:27.517Z,25.20
2018-06-21T06:06:55.928Z,24.60
2018-06-21T06:09:24.286Z,24.70
2018-06-21T06:11:52.601Z,25.40
2018-06-21T06:14:20.921Z,26.20
2018-06-21T06:16:49.232Z,27.40
2018-06-21T06:19:17.539Z,28.60
2018-06-21T06:21:45.936Z,27.40
2018-06-21T06:24:14.374Z,27.50
2018-06-21T06:26:42.788Z,28.70
2018-06-21T06:29:11.088Z,28.60
2018-06-21T06:31:39.631Z,28.20
2018-06-21T06:34:07.969Z,29.30
2018-06-21T06:36:36.290Z,29.60
2018-06-21T06:39:12.357Z,29.90
2018-06-21T06:41:40.694Z,29.60
2018-06-21T06:44:09.634Z,30.60
2018-06-21T06:46:37.974Z,31.40
2018-06-21T06:49:06.292Z,32.80
2018-06-21T06:51:34.607Z,32.90
2018-06-21T06:54:02.967Z,33.20
2018-06-21T06:56:31.293Z,32.90
2018-06-21T06:59:00.095Z,32.70
2018-06-21T07:01:28.763Z,32.00
2018-06-21T07:03:57.088Z,30.80
2018-06-21T07:06:25.410Z,29.10
2018-06-21T07:08:54.013Z,29.00
2018-06-21T07:11:22.316Z,28.10
2018-06-21T07:13:50.650Z,27.90
2018-06-21T07:16:18.987Z,27.40
2018-06-21T07:18:47.343Z,26.70
2018-06-21T07:21:15.639Z,27.10
2018-06-21T07:23:44.088Z,27.50
2018-06-21T07:26:12.406Z,27.40
2018-06-21T07:28:40.821Z,28.40
2018-06-21T07:31:09.159Z,28.20
2018-06-21T07:33:37.636Z,27.90
2018-06-21T07:36:05.985Z,27.80
2018-06-21T07:38:34.318Z,28.90
2018-06-21T07:41:02.650Z,30.40
2018-06-21T07:43:31.107Z,31.50
2018-06-21T07:48:33.609Z,32.80
2018-06-21T07:51:01.926Z,32.40
2018-06-21T07:53:30.262Z,32.30
2018-06-21T07:58:26.625Z,32.00
2018-06-21T08:00:54.946Z,32.30
2018-06-21T08:03:23.265Z,32.60
2018-06-21T08:05:51.564Z,32.30
2018-06-21T08:08:19.901Z,32.70
2018-06-21T08:10:48.251Z,32.70
2018-06-21T08:13:17.301Z,32.40
2018-06-21T08:15:45.606Z,31.70
2018-06-21T08:18:14.143Z,30.30
2018-06-21T08:20:42.461Z,30.10
2018-06-21T08:23:10.911Z,28.90
2018-06-21T08:25:39.284Z,28.30
2018-06-21T08:30:35.850Z,26.60
2018-06-21T08:33:04.205Z,26.10
2018-06-21T08:35:32.585Z,26.30
2018-06-21T08:38:00.925Z,26.30
2018-06-21T08:40:29.219Z,26.10
2018-06-21T08:42:57.585Z,27.70
2018-06-21T08:45:25.895Z,28.90
2018-06-21T08:47:54.217Z,28.90
2018-06-21T08:50:22.523Z,29.10
2018-06-21T08:52:50.890Z,30.70
2018-06-21T08:55:19.273Z,30.60
2018-06-21T08:57:47.575Z,31.20
2018-06-21T09:00:16.506Z,31.30
2018-06-21T09:02:44.877Z,30.70
2018-06-21T09:05:13.228Z,30.20
2018-06-21T09:07:42.300Z,30.60
2018-06-21T09:10:10.789Z,29.40
2018-06-21T09:12:39.496Z,28.60
2018-06-21T09:15:09.397Z,27.40
2018-06-21T09:17:37.716Z,26.70
2018-06-21T09:20:06.058Z,27.20
2018-06-21T09:22:34.541Z,27.80
2018-06-21T09:25:03.262Z,28.00
2018-06-21T09:27:31.985Z,27.70
2018-06-21T09:30:00.320Z,27.20
2018-06-21T09:32:30.195Z,26.90
2018-06-21T09:34:58.514Z,26.80
2018-06-21T09:37:32.169Z,26.90
2018-06-21T09:40:06.633Z,27.10
2018-06-21T09:42:40.255Z,26.90
2018-06-21T09:45:08.604Z,26.70
2018-06-21T09:47:42.385Z,26.70
2018-06-21T09:50:10.741Z,26.80
2018-06-21T09:52:39.112Z,26.70
2018-06-21T09:55:07.503Z,26.60
2018-06-21T09:57:35.884Z,26.80
2018-06-21T10:00:04.287Z,26.50
2018-06-21T10:02:32.607Z,26.20
2018-06-21T10:05:01.265Z,26.20
2018-06-21T10:07:29.591Z,26.40
2018-06-21T10:09:57.916Z,26.10
2018-06-21T10:12:26.261Z,26.20
2018-06-21T10:14:54.609Z,26.30
2018-06-21T10:17:22.955Z,26.40
2018-06-21T10:19:51.428Z,26.40
2018-06-21T10:22:19.759Z,26.40
2018-06-21T10:24:48.118Z,26.20
2018-06-21T10:27:16.527Z,25.90
2018-06-21T10:29:44.847Z,25.80
2018-06-21T10:32:13.240Z,25.80
2018-06-21T10:34:41.561Z,25.90
2018-06-21T10:39:38.098Z,26.00
2018-06-21T10:42:06.431Z,26.00
2018-06-21T10:44:34.777Z,26.30
2018-06-21T10:47:03.107Z,26.50
2018-06-21T10:49:31.449Z,26.40
2018-06-21T10:51:59.849Z,26.50
2018-06-21T10:54:28.276Z,26.50
2018-06-21T10:56:56.592Z,26.40
2018-06-21T10:59:24.930Z,26.30
2018-06-21T11:01:53.296Z,26.00
2018-06-21T11:04:21.667Z,26.00
2018-06-21T11:09:47.562Z,26.30
2018-06-21T11:12:15.859Z,26.00
2018-06-21T11:17:12.397Z,26.10
2018-06-21T11:19:40.738Z,26.10
2018-06-21T11:22:09.298Z,25.80
2018-06-21T11:24:37.623Z,25.50
2018-06-21T11:27:05.947Z,25.60
2018-06-21T11:29:34.303Z,25.70
2018-06-21T11:32:02.620Z,25.80
2018-06-21T11:34:30.955Z,25.50
2018-06-21T11:36:59.320Z,25.40
2018-06-21T11:39:27.623Z,25.20
2018-06-21T11:41:55.940Z,25.10
2018-06-21T11:44:24.261Z,25.00
2018-06-21T11:46:52.595Z,25.20
2018-06-21T11:49:20.906Z,25.30
2018-06-21T11:51:49.261Z,25.40
2018-06-21T11:54:17.663Z,25.40
2018-06-21T11:56:45.988Z,25.30
2018-06-21T11:59:14.291Z,25.60
2018-06-21T12:01:42.630Z,25.50
2018-06-21T12:04:10.961Z,25.40
2018-06-21T12:06:39.299Z,25.20
2018-06-21T12:09:09.259Z,25.20
2018-06-21T12:11:37.622Z,25.30
2018-06-21T12:14:06.282Z,25.20
2018-06-21T12:16:34.594Z,25.10
2018-06-21T12:19:03.289Z,25.00
2018-06-21T12:21:32.209Z,25.10
2018-06-21T12:24:00.531Z,25.30
2018-06-21T12:26:28.909Z,25.40
2018-06-21T12:28:57.193Z,25.40
2018-06-21T12:31:25.590Z,25.30
2018-06-21T12:33:53.942Z,25.10
2018-06-21T12:36:22.281Z,25.10
2018-06-21T12:38:50.590Z,25.10
2018-06-21T12:41:18.911Z,25.10
2018-06-21T12:43:47.206Z,24.90
2018-06-21T12:46:15.550Z,24.90
2018-06-21T12:48:43.885Z,24.90
2018-06-21T12:51:12.225Z,24.90
2018-06-21T12:53:40.545Z,25.00
2018-06-21T12:56:08.869Z,24.90
2018-06-21T12:58:37.181Z,24.70
2018-06-21T13:01:05.692Z,24.50
2018-06-21T13:03:34.037Z,23.80
2018-06-21T13:06:02.408Z,22.90
2018-06-21T13:08:42.216Z,22.30
2018-06-21T13:11:22.130Z,21.70
2018-06-21T13:13:50.497Z,21.10
2018-06-21T13:16:18.840Z,20.80
2018-06-21T13:18:47.216Z,20.50
2018-06-21T13:23:43.643Z,20.70
2018-06-21T13:26:12.050Z,20.60
2018-06-21T13:28:40.373Z,20.70
2018-06-21T13:31:08.719Z,20.60
2018-06-21T13:33:37.031Z,20.20
2018-06-21T13:36:05.436Z,19.90
2018-06-21T13:38:33.825Z,19.90
2018-06-21T13:43:30.188Z,19.60
2018-06-21T13:45:58.528Z,19.50
2018-06-21T13:48:26.903Z,19.50
2018-06-21T13:50:55.275Z,19.60
2018-06-21T13:53:23.612Z,19.70
2018-06-21T13:55:51.911Z,19.60
2018-06-21T13:58:20.216Z,19.50
2018-06-21T14:00:48.530Z,19.50
2018-06-21T14:03:16.863Z,19.80
2018-06-21T14:05:45.170Z,19.90
2018-06-21T14:08:13.717Z,19.90
2018-06-21T14:10:41.947Z,19.90
2018-06-21T14:13:10.271Z,19.80
2018-06-21T14:15:38.647Z,19.50
2018-06-21T14:18:06.996Z,19.30
2018-06-21T14:20:35.310Z,19.30
2018-06-21T14:23:03.661Z,19.10
2018-06-21T14:25:31.975Z,18.80
2018-06-21T14:28:00.312Z,18.60
2018-06-21T14:30:28.729Z,18.30
2018-06-21T14:32:57.039Z,17.90
2018-06-21T14:35:25.441Z,17.40
2018-06-21T14:37:53.744Z,17.10
2018-06-21T14:40:22.206Z,16.90
2018-06-21T14:42:50.530Z,16.80
2018-06-21T14:45:18.849Z,16.70
2018-06-21T14:47:47.224Z,16.70
2018-06-21T14:50:15.547Z,16.70
2018-06-21T14:52:43.907Z,16.70
2018-06-21T14:55:12.251Z,16.70
2018-06-21T14:57:40.651Z,16.90
2018-06-21T15:00:09.095Z,17.00
2018-06-21T15:02:37.541Z,17.20
2018-06-21T15:05:05.965Z,17.50
2018-06-21T15:07:34.307Z,17.60
2018-06-21T15:10:02.645Z,17.70
2018-06-21T15:12:31.139Z,17.80
2018-06-21T15:14:59.479Z,18.00
2018-06-21T15:17:27.922Z,18.30
2018-06-21T15:19:56.402Z,18.40
2018-06-21T15:22:24.783Z,18.30
2018-06-21T15:24:53.129Z,18.30
2018-06-21T15:27:21.504Z,18.20
2018-06-21T15:29:50.018Z,18.20
2018-06-21T15:34:46.530Z,18.50
2018-06-21T15:37:14.910Z,18.70
2018-06-21T15:39:43.240Z,18.80
2018-06-21T15:44:39.714Z,18.70
2018-06-21T15:47:08.111Z,18.60
2018-06-21T15:49:36.488Z,18.40
2018-06-21T15:52:04.909Z,18.30
2018-06-21T15:54:33.259Z,18.20
2018-06-21T15:57:01.641Z,18.00
2018-06-21T15:59:30.049Z,18.00
2018-06-21T16:01:58.369Z,18.00
2018-06-21T16:04:26.715Z,18.20
2018-06-21T16:06:55.140Z,18.30
2018-06-21T16:09:23.605Z,18.40
2018-06-21T16:11:52.001Z,18.40
2018-06-21T16:14:20.381Z,18.40
2018-06-21T16:16:48.728Z,18.30
2018-06-21T16:19:17.113Z,18.40
2018-06-21T16:21:45.506Z,18.60
2018-06-21T16:24:13.885Z,18.80
2018-06-21T16:26:42.264Z,18.90
2018-06-21T16:29:10.673Z,18.70
2018-06-21T16:31:39.138Z,18.30
2018-06-21T16:34:07.487Z,18.20
2018-06-21T16:36:35.891Z,18.20
2018-06-21T16:39:06.576Z,18.00
2018-06-21T16:41:35.100Z,18.00
2018-06-21T16:44:03.494Z,18.20
2018-06-21T16:46:31.880Z,18.20
2018-06-21T16:51:28.507Z,18.10
2018-06-21T16:53:56.960Z,18.10
2018-06-21T16:56:25.508Z,18.00
2018-06-21T16:58:55.156Z,18.10
2018-06-21T17:01:23.563Z,18.20
2018-06-21T17:03:52.019Z,18.20
2018-06-21T17:06:20.562Z,18.20
2018-06-21T17:08:48.949Z,18.10
2018-06-21T17:11:17.427Z,17.90
2018-06-21T17:13:45.799Z,17.70
2018-06-21T17:16:17.123Z,17.70
2018-06-21T17:18:45.510Z,17.70
2018-06-21T17:21:13.867Z,17.70
2018-06-21T17:26:10.488Z,17.60
2018-06-21T17:28:38.873Z,17.60
2018-06-21T17:31:07.292Z,17.50
2018-06-21T17:33:35.640Z,17.40
2018-06-21T17:36:04.075Z,17.50
2018-06-21T17:38:32.400Z,17.40
2018-06-21T17:41:00.757Z,17.30
2018-06-21T17:43:29.386Z,17.30
2018-06-21T17:45:57.936Z,17.20
2018-06-21T17:48:26.294Z,17.20
2018-06-21T17:57:41.537Z,17.10
2018-06-21T18:00:09.919Z,16.90
2018-06-21T18:02:38.553Z,16.90
2018-06-21T18:05:07.030Z,16.80
2018-06-21T18:07:35.390Z,16.70
2018-06-21T18:10:03.974Z,16.70
2018-06-21T18:12:32.291Z,16.50
2018-06-21T18:15:00.681Z,16.40
2018-06-21T18:17:29.059Z,16.30
2018-06-21T18:19:57.416Z,16.20
2018-06-21T18:22:25.815Z,16.10
2018-06-21T18:24:54.215Z,16.00
2018-06-21T18:27:22.555Z,16.00
2018-06-21T18:29:50.984Z,15.90
2018-06-21T18:32:19.483Z,15.90
2018-06-21T18:34:48.059Z,15.80
2018-06-21T18:37:16.690Z,15.70
2018-06-21T18:39:45.124Z,15.70
2018-06-21T18:42:13.469Z,15.60
2018-06-21T18:44:41.850Z,15.50
2018-06-21T18:47:10.268Z,15.50
2018-06-21T18:49:39.912Z,15.40
2018-06-21T18:52:08.235Z,15.40
2018-06-21T18:54:36.633Z,15.30
2018-06-21T18:59:33.236Z,15.20
2018-06-21T19:02:01.564Z,15.20
2018-06-21T19:04:29.960Z,15.10
2018-06-21T19:07:03.577Z,15.00
2018-06-21T19:09:37.333Z,15.00
2018-06-21T19:12:07.361Z,14.90
2018-06-21T19:14:35.816Z,14.90
2018-06-21T19:17:04.201Z,14.80
2018-06-21T19:19:32.607Z,14.70
2018-06-21T19:22:00.947Z,14.60
2018-06-21T19:24:29.329Z,14.50
2018-06-21T19:26:57.687Z,14.50
2018-06-21T19:29:26.041Z,14.40
2018-06-21T19:31:54.504Z,14.30
2018-06-21T19:34:22.838Z,14.20
2018-06-21T19:36:51.186Z,14.20
2018-06-21T19:39:19.595Z,14.10
2018-06-21T19:41:47.978Z,14.10
2018-06-21T19:44:16.401Z,14.00
2018-06-21T19:46:44.782Z,14.00
2018-06-21T19:49:13.197Z,13.90
2018-06-21T19:51:41.597Z,13.80
2018-06-21T19:54:09.941Z,13.80
2018-06-21T19:56:38.362Z,13.70
2018-06-21T19:59:06.810Z,13.60
2018-06-21T20:01:35.229Z,13.50
2018-06-21T20:04:03.607Z,13.50
2018-06-21T20:06:31.969Z,13.50
2018-06-21T20:09:00.414Z,13.50
2018-06-21T20:11:34.190Z,13.40
2018-06-21T20:14:02.556Z,13.40
2018-06-21T20:16:30.915Z,13.20
2018-06-21T20:19:11.913Z,13.20
2018-06-21T20:24:08.556Z,13.10
2018-06-21T20:26:36.907Z,13.10
2018-06-21T20:29:09.536Z,12.90
2018-06-21T20:31:37.927Z,12.80
2018-06-21T20:34:06.371Z,12.80
2018-06-21T20:36:34.728Z,12.70
2018-06-21T20:39:03.158Z,12.70
2018-06-21T20:41:31.545Z,12.60
2018-06-21T20:43:59.875Z,12.60
2018-06-21T20:46:28.235Z,12.50
2018-06-21T20:48:56.607Z,12.50
2018-06-21T20:51:25.062Z,12.40
2018-06-21T20:53:53.407Z,12.40
2018-06-21T20:56:21.861Z,12.30
2018-06-21T20:58:50.180Z,12.30
2018-06-21T21:01:18.565Z,12.20
2018-06-21T21:03:51.046Z,12.20
2018-06-21T21:06:19.696Z,12.10
2018-06-21T21:08:48.084Z,12.10
2018-06-21T21:11:16.461Z,12.00
2018-06-21T21:13:44.871Z,11.90
2018-06-21T21:16:13.272Z,11.90
2018-06-21T21:18:41.645Z,11.80
2018-06-21T21:21:10.911Z,11.80
2018-06-21T21:23:39.225Z,11.70
2018-06-21T21:26:07.627Z,11.60
2018-06-21T21:28:36.024Z,11.60
2018-06-21T21:31:04.413Z,11.50
2018-06-21T21:33:32.768Z,11.40
2018-06-21T21:36:01.232Z,11.30
2018-06-21T21:38:29.611Z,11.30
2018-06-21T21:40:58.020Z,11.20
2018-06-21T21:43:26.377Z,11.20
2018-06-21T21:45:54.745Z,11.20
2018-06-21T21:48:23.115Z,11.10
2018-06-21T21:50:51.571Z,11.10
2018-06-21T21:53:19.919Z,11.00
2018-06-21T21:55:48.268Z,11.00
2018-06-21T21:58:16.626Z,11.00
2018-06-21T22:00:49.865Z,11.00
2018-06-21T22:03:18.202Z,11.00
2018-06-21T22:05:46.600Z,11.00
2018-06-21T22:08:14.961Z,10.90
2018-06-21T22:10:44.281Z,11.00
2018-06-21T22:13:13.219Z,11.00
2018-06-21T22:15:41.659Z,11.00
2018-06-21T22:18:10.023Z,10.90
2018-06-21T22:20:38.575Z,10.90
2018-06-21T22:23:07.026Z,10.90
2018-06-21T22:25:35.375Z,10.80
2018-06-21T22:28:03.759Z,10.80
2018-06-21T22:30:32.134Z,10.80
2018-06-21T22:33:00.864Z,10.80
2018-06-21T22:35:29.578Z,10.70
2018-06-21T22:37:57.971Z,10.80
2018-06-21T22:40:26.339Z,10.90
2018-06-21T22:42:54.691Z,10.90
2018-06-21T22:45:23.072Z,10.90
2018-06-21T22:47:51.458Z,10.90
2018-06-21T22:50:19.826Z,10.80
2018-06-21T22:52:48.217Z,10.80
2018-06-21T22:55:16.576Z,10.80
2018-06-21T22:57:44.955Z,10.80
2018-06-21T23:00:13.332Z,10.80
2018-06-21T23:02:41.713Z,10.80
2018-06-21T23:05:10.104Z,10.70
2018-06-21T23:07:38.451Z,10.60
2018-06-21T23:10:06.839Z,10.60
2018-06-21T23:12:35.246Z,10.50
2018-06-21T23:15:03.600Z,10.50
2018-06-21T23:17:31.989Z,10.40
2018-06-21T23:20:00.308Z,10.40
2018-06-21T23:22:28.650Z,10.40
2018-06-21T23:24:57.010Z,10.30
2018-06-21T23:27:25.341Z,10.30
2018-06-21T23:29:53.662Z,10.20
2018-06-21T23:32:22.085Z,10.20
2018-06-21T23:34:50.448Z,10.20
2018-06-21T23:37:18.795Z,10.30
2018-06-21T23:39:47.139Z,10.40
2018-06-21T23:42:15.509Z,10.50
2018-06-21T23:44:43.811Z,10.60
2018-06-21T23:47:12.139Z,10.60
2018-06-21T23:49:40.489Z,10.50
2018-06-21T23:54:36.893Z,10.40
2018-06-21T23:57:05.226Z,10.30
2018-06-21T23:59:33.574Z,10.20
